Bearden, Oklahoma
Current Conditions -  °F | °C
As of 2:35 AM on Sunday 26 Oct 2014 (Local Time) from KOKM Reporting Station
Haze Haze  
Wind Chill: 61°   Ceiling: Unl
Heat Index: 61°   Visibility: 3mi
Dew Point: 61°   Wind: 0mph
Humidity: 100%   Direction: NA
Pressure: 29.97"   Gusts: NA
Location:  35.469°N, 96.2923°W
Report Text: KOKM 260735Z AUTO 00000KT 3SM BR CLR 16/16 A2997 RMK AO2 T01620162
Loading
Personal Weather Stations






























Interactive Weather Map New forecast layout! Learn more

10-Day Weather Forecast

Advertisements
Track Severe Weather on mobile